Agia Marina — SX5375 — position and weather

sailwx.info

Track history (hours):
 
Tides and Currents Weather Stations Pressure Air Temp Water Temp Dewpoint Dewpoint Depression Visibility Wind Speed Wind Dir Waves Ship Positions

Agia Marina

Last reported at 2015-Jul-31 08:09 UTC. Time now 2015-Jul-31 11:23 UTC.
Position N 37°07' E 026°50'.

Length 59 m; draft 2.5 m.

Type: Cargo ship. MMSI: 237042500.

Date/timePositionNaut miles runAvg speedWind from/ knotsBaromVisibWave heightAir tempDewpointWater temp
2015-Jul-31 08:09N 37°07' E 026°50'3 5.7
2015-Jul-31 07:33N 37°09' E 026°46'7 6.6
2015-Jul-31 06:33N 37°13' E 026°41'8 6.8
2015-Jul-31 05:21N 37°19' E 026°33'0 0.0
2015-Jul-30 20:18N 37°19' E 026°34'4 4.8
2015-Jul-30 19:31N 37°22' E 026°36'7 7.1
2015-Jul-30 18:33N 37°28' E 026°31'15 3.7
2015-Jul-30 14:25N 37°43' E 026°33'5 6.4
2015-Jul-30 13:33N 37°47' E 026°37'3 1.2
2015-Jul-30 11:07N 37°48' E 026°41'3 5.9
2015-Jul-30 10:33N 37°47' E 026°37'7 6.9
2015-Jul-30 09:33N 37°45' E 026°29'7 7.1
2015-Jul-30 08:33N 37°42' E 026°20'4 0.3
2015-Jul-29 19:33N 37°41' E 026°16'4 2.0
2015-Jul-29 17:31N 37°37' E 026°18'4 4.0
2015-Jul-29 16:33N 37°34' E 026°15'6 6.3
2015-Jul-29 15:33N 37°31' E 026°08'6 6.5
2015-Jul-29 14:33N 37°27' E 026°01'6 6.1
2015-Jul-29 13:33N 37°24' E 025°55'6 6.0
2015-Jul-29 12:33N 37°20' E 025°48'6 5.8
2015-Jul-29 11:33N 37°17' E 025°42'6 5.6
2015-Jul-29 10:34N 37°15' E 025°36'6 6.0
2015-Jul-29 09:33N 37°12' E 025°29'7 6.6
2015-Jul-29 08:33N 37°08' E 025°23'2 1.9
2015-Jul-29 07:33N 37°06' E 025°22'0 0.0
2015-Jul-29 06:33N 37°06' E 025°22'0 0.0
2015-Jul-29 05:33N 37°06' E 025°22'1 0.6
2015-Jul-29 04:33N 37°06' E 025°22'0 0.0
2015-Jul-29 03:33N 37°06' E 025°22'0 0.0
2015-Jul-29 02:33N 37°06' E 025°22'0 0.0
2015-Jul-29 01:33N 37°06' E 025°22'0 0.0
2015-Jul-29 00:33N 37°06' E 025°22'0 0.0
2015-Jul-28 23:33N 37°06' E 025°22'0 0.1
2015-Jul-28 22:33N 37°06' E 025°22'6 6.3
2015-Jul-28 21:33N 37°10' E 025°16'6 6.1
2015-Jul-28 20:33N 37°07' E 025°09'2 2.2
2015-Jul-28 19:33N 37°05' E 025°09'0 0.0
2015-Jul-28 18:33N 37°05' E 025°09'0 0.0
2015-Jul-28 17:32N 37°05' E 025°09'0 0.0
2015-Jul-28 16:32N 37°05' E 025°09'0 0.0
2015-Jul-28 15:32N 37°05' E 025°09'0 0.0
2015-Jul-28 14:32N 37°05' E 025°09'0 0.0
2015-Jul-28 13:32N 37°05' E 025°09'0 0.0
2015-Jul-28 12:32N 37°05' E 025°09'4 3.9
2015-Jul-28 11:33N 37°08' E 025°06'7 6.6
2015-Jul-28 10:33N 37°14' E 025°03'7 7.0
2015-Jul-28 09:33N 37°21' E 025°00'6 5.8
2015-Jul-28 08:33N 37°26' E 024°56'0 0.0
2015-Jul-28 07:33N 37°26' E 024°56'0 0.0
2015-Jul-28 06:33N 37°26' E 024°56'0 0.0
2015-Jul-28 05:33N 37°26' E 024°56'0 0.0
2015-Jul-28 04:33N 37°26' E 024°56'0 0.0
2015-Jul-28 03:33N 37°26' E 024°56'0 0.0
2015-Jul-28 02:33N 37°26' E 024°56'0 0.0
2015-Jul-28 01:33N 37°26' E 024°56'0 0.0
2015-Jul-28 00:33N 37°26' E 024°56'0 0.0
2015-Jul-27 23:33N 37°26' E 024°56'0 0.0
2015-Jul-27 22:33N 37°26' E 024°56'0 0.0
2015-Jul-27 21:33N 37°26' E 024°56'0 0.1
2015-Jul-27 20:32N 37°26' E 024°56'6 6.6
2015-Jul-27 19:33N 37°29' E 025°04'6 5.6
2015-Jul-27 18:33N 37°32' E 025°09'0 0.0
2015-Jul-27 17:33N 37°32' E 025°09'3 3.1
2015-Jul-27 16:33N 37°33' E 025°06'7 6.8
2015-Jul-27 15:33N 37°38' E 024°59'8 7.3
2015-Jul-27 14:27N 37°44' E 024°52'37 1.5
2015-Jul-26 13:18N 37°39' E 024°07'9 0.6
2015-Jul-25 22:15N 37°47' E 024°10'7 6.6
2015-Jul-25 21:14N 37°50' E 024°17'  
Track history (hours):
 
Tides and Currents Weather Stations Pressure Air Temp Water Temp Dewpoint Dewpoint Depression Visibility Wind Speed Wind Dir Waves Ship Positions

Agia Marina

Last reported at 2015-Jul-31 08:09 UTC. Time now 2015-Jul-31 11:23 UTC.
Position N 37°07' E 026°50'.

Length 59 m; draft 2.5 m.

Type: Cargo ship. MMSI: 237042500.

Date/timePositionNaut miles runAvg speedWind from/ knotsBaromVisibWave heightAir tempDewpointWater temp
2015-Jul-31 08:09N 37°07' E 026°50'3 5.7
2015-Jul-31 07:33N 37°09' E 026°46'7 6.6
2015-Jul-31 06:33N 37°13' E 026°41'8 6.8
2015-Jul-31 05:21N 37°19' E 026°33'0 0.0
2015-Jul-30 20:18N 37°19' E 026°34'4 4.8
2015-Jul-30 19:31N 37°22' E 026°36'7 7.1
2015-Jul-30 18:33N 37°28' E 026°31'15 3.7
2015-Jul-30 14:25N 37°43' E 026°33'5 6.4
2015-Jul-30 13:33N 37°47' E 026°37'3 1.2
2015-Jul-30 11:07N 37°48' E 026°41'3 5.9
2015-Jul-30 10:33N 37°47' E 026°37'7 6.9
2015-Jul-30 09:33N 37°45' E 026°29'7 7.1
2015-Jul-30 08:33N 37°42' E 026°20'4 0.3
2015-Jul-29 19:33N 37°41' E 026°16'4 2.0
2015-Jul-29 17:31N 37°37' E 026°18'4 4.0
2015-Jul-29 16:33N 37°34' E 026°15'6 6.3
2015-Jul-29 15:33N 37°31' E 026°08'6 6.5
2015-Jul-29 14:33N 37°27' E 026°01'6 6.1
2015-Jul-29 13:33N 37°24' E 025°55'6 6.0
2015-Jul-29 12:33N 37°20' E 025°48'6 5.8
2015-Jul-29 11:33N 37°17' E 025°42'6 5.6
2015-Jul-29 10:34N 37°15' E 025°36'6 6.0
2015-Jul-29 09:33N 37°12' E 025°29'7 6.6
2015-Jul-29 08:33N 37°08' E 025°23'2 1.9
2015-Jul-29 07:33N 37°06' E 025°22'0 0.0
2015-Jul-29 06:33N 37°06' E 025°22'0 0.0
2015-Jul-29 05:33N 37°06' E 025°22'1 0.6
2015-Jul-29 04:33N 37°06' E 025°22'0 0.0
2015-Jul-29 03:33N 37°06' E 025°22'0 0.0
2015-Jul-29 02:33N 37°06' E 025°22'0 0.0
2015-Jul-29 01:33N 37°06' E 025°22'0 0.0
2015-Jul-29 00:33N 37°06' E 025°22'0 0.0
2015-Jul-28 23:33N 37°06' E 025°22'0 0.1
2015-Jul-28 22:33N 37°06' E 025°22'6 6.3
2015-Jul-28 21:33N 37°10' E 025°16'6 6.1
2015-Jul-28 20:33N 37°07' E 025°09'2 2.2
2015-Jul-28 19:33N 37°05' E 025°09'0 0.0
2015-Jul-28 18:33N 37°05' E 025°09'0 0.0
2015-Jul-28 17:32N 37°05' E 025°09'0 0.0
2015-Jul-28 16:32N 37°05' E 025°09'0 0.0
2015-Jul-28 15:32N 37°05' E 025°09'0 0.0
2015-Jul-28 14:32N 37°05' E 025°09'0 0.0
2015-Jul-28 13:32N 37°05' E 025°09'0 0.0
2015-Jul-28 12:32N 37°05' E 025°09'4 3.9
2015-Jul-28 11:33N 37°08' E 025°06'7 6.6
2015-Jul-28 10:33N 37°14' E 025°03'7 7.0
2015-Jul-28 09:33N 37°21' E 025°00'6 5.8
2015-Jul-28 08:33N 37°26' E 024°56'0 0.0
2015-Jul-28 07:33N 37°26' E 024°56'0 0.0
2015-Jul-28 06:33N 37°26' E 024°56'0 0.0
2015-Jul-28 05:33N 37°26' E 024°56'0 0.0
2015-Jul-28 04:33N 37°26' E 024°56'0 0.0
2015-Jul-28 03:33N 37°26' E 024°56'0 0.0
2015-Jul-28 02:33N 37°26' E 024°56'0 0.0
2015-Jul-28 01:33N 37°26' E 024°56'0 0.0
2015-Jul-28 00:33N 37°26' E 024°56'0 0.0
2015-Jul-27 23:33N 37°26' E 024°56'0 0.0
2015-Jul-27 22:33N 37°26' E 024°56'0 0.0
2015-Jul-27 21:33N 37°26' E 024°56'0 0.1
2015-Jul-27 20:32N 37°26' E 024°56'6 6.6
2015-Jul-27 19:33N 37°29' E 025°04'6 5.6
2015-Jul-27 18:33N 37°32' E 025°09'0 0.0
2015-Jul-27 17:33N 37°32' E 025°09'3 3.1
2015-Jul-27 16:33N 37°33' E 025°06'7 6.8
2015-Jul-27 15:33N 37°38' E 024°59'8 7.3
2015-Jul-27 14:27N 37°44' E 024°52'37 1.5
2015-Jul-26 13:18N 37°39' E 024°07'9 0.6
2015-Jul-25 22:15N 37°47' E 024°10'7 6.6
2015-Jul-25 21:14N 37°50' E 024°17'  

Dump ship's entire track history